sensor_id;sensor_type;location;lat;lon;timestamp;temperature;humidity
13992;DHT22;7070;53.586;9.692;2023-07-31T00:01:47;15.60;84.80
13992;DHT22;7070;53.586;9.692;2023-07-31T00:04:14;15.60;84.90
13992;DHT22;7070;53.586;9.692;2023-07-31T00:06:41;15.70;85.00
13992;DHT22;7070;53.586;9.692;2023-07-31T00:09:08;15.70;85.00
13992;DHT22;7070;53.586;9.692;2023-07-31T00:11:36;15.80;85.10
13992;DHT22;7070;53.586;9.692;2023-07-31T00:14:03;15.80;85.00
13992;DHT22;7070;53.586;9.692;2023-07-31T00:16:30;15.90;85.00
13992;DHT22;7070;53.586;9.692;2023-07-31T00:18:57;15.90;85.00
13992;DHT22;7070;53.586;9.692;2023-07-31T00:21:23;15.90;85.00
13992;DHT22;7070;53.586;9.692;2023-07-31T00:23:50;15.90;84.90
13992;DHT22;7070;53.586;9.692;2023-07-31T00:26:17;15.90;84.90
13992;DHT22;7070;53.586;9.692;2023-07-31T00:28:46;16.00;84.90
13992;DHT22;7070;53.586;9.692;2023-07-31T00:31:12;15.90;84.70
13992;DHT22;7070;53.586;9.692;2023-07-31T00:33:39;15.90;84.80
13992;DHT22;7070;53.586;9.692;2023-07-31T00:36:06;15.90;84.70
13992;DHT22;7070;53.586;9.692;2023-07-31T00:38:33;15.90;84.80
13992;DHT22;7070;53.586;9.692;2023-07-31T00:41:00;15.90;84.70
13992;DHT22;7070;53.586;9.692;2023-07-31T00:43:27;15.90;84.60
13992;DHT22;7070;53.586;9.692;2023-07-31T00:45:55;15.90;84.70
13992;DHT22;7070;53.586;9.692;2023-07-31T00:48:22;15.80;84.50
13992;DHT22;7070;53.586;9.692;2023-07-31T00:50:50;15.80;84.50
13992;DHT22;7070;53.586;9.692;2023-07-31T00:53:17;15.80;84.50
13992;DHT22;7070;53.586;9.692;2023-07-31T00:55:44;15.80;84.50
13992;DHT22;7070;53.586;9.692;2023-07-31T00:58:11;15.70;84.40
13992;DHT22;7070;53.586;9.692;2023-07-31T01:00:38;15.70;84.40
13992;DHT22;7070;53.586;9.692;2023-07-31T01:03:06;15.60;84.30
13992;DHT22;7070;53.586;9.692;2023-07-31T01:05:39;15.60;84.40
13992;DHT22;7070;53.586;9.692;2023-07-31T01:08:22;15.60;84.50
13992;DHT22;7070;53.586;9.692;2023-07-31T01:10:56;15.50;84.50
13992;DHT22;7070;53.586;9.692;2023-07-31T01:13:23;15.50;84.60
13992;DHT22;7070;53.586;9.692;2023-07-31T01:15:50;15.40;84.50
13992;DHT22;7070;53.586;9.692;2023-07-31T01:18:18;15.50;84.60
13992;DHT22;7070;53.586;9.692;2023-07-31T01:20:52;15.40;84.50
13992;DHT22;7070;53.586;9.692;2023-07-31T01:23:31;15.40;84.60
13992;DHT22;7070;53.586;9.692;2023-07-31T01:26:11;15.40;84.60
13992;DHT22;7070;53.586;9.692;2023-07-31T01:28:55;15.40;84.60
13992;DHT22;7070;53.586;9.692;2023-07-31T01:31:24;15.30;84.50
13992;DHT22;7070;53.586;9.692;2023-07-31T01:33:53;15.30;84.70
13992;DHT22;7070;53.586;9.692;2023-07-31T01:36:21;15.30;84.70
13992;DHT22;7070;53.586;9.692;2023-07-31T01:38:48;15.30;84.60
13992;DHT22;7070;53.586;9.692;2023-07-31T01:41:18;15.20;84.60
13992;DHT22;7070;53.586;9.692;2023-07-31T01:43:45;15.20;84.60
13992;DHT22;7070;53.586;9.692;2023-07-31T01:46:11;15.20;84.70
13992;DHT22;7070;53.586;9.692;2023-07-31T01:48:38;15.20;84.70
13992;DHT22;7070;53.586;9.692;2023-07-31T01:51:05;15.20;84.80
13992;DHT22;7070;53.586;9.692;2023-07-31T01:53:32;15.20;84.80
13992;DHT22;7070;53.586;9.692;2023-07-31T01:55:59;15.10;84.80
13992;DHT22;7070;53.586;9.692;2023-07-31T01:58:27;15.10;84.90
13992;DHT22;7070;53.586;9.692;2023-07-31T02:00:54;15.10;85.00
13992;DHT22;7070;53.586;9.692;2023-07-31T02:03:21;15.20;85.10
13992;DHT22;7070;53.586;9.692;2023-07-31T02:05:48;15.20;85.10
13992;DHT22;7070;53.586;9.692;2023-07-31T02:08:16;15.30;85.40
13992;DHT22;7070;53.586;9.692;2023-07-31T02:10:43;15.30;85.40
13992;DHT22;7070;53.586;9.692;2023-07-31T02:13:10;15.30;85.40
13992;DHT22;7070;53.586;9.692;2023-07-31T02:15:38;15.30;85.40
13992;DHT22;7070;53.586;9.692;2023-07-31T02:18:05;15.40;85.40
13992;DHT22;7070;53.586;9.692;2023-07-31T02:20:34;15.40;85.50
13992;DHT22;7070;53.586;9.692;2023-07-31T02:23:01;15.40;85.50
13992;DHT22;7070;53.586;9.692;2023-07-31T02:25:27;15.50;85.50
13992;DHT22;7070;53.586;9.692;2023-07-31T02:27:54;15.50;85.50
13992;DHT22;7070;53.586;9.692;2023-07-31T02:30:21;15.50;86.20
13992;DHT22;7070;53.586;9.692;2023-07-31T02:32:50;15.60;85.50
13992;DHT22;7070;53.586;9.692;2023-07-31T02:35:17;15.60;85.50
13992;DHT22;7070;53.586;9.692;2023-07-31T02:37:44;15.60;85.50
13992;DHT22;7070;53.586;9.692;2023-07-31T02:40:11;15.60;85.50
13992;DHT22;7070;53.586;9.692;2023-07-31T02:42:38;15.60;85.40
13992;DHT22;7070;53.586;9.692;2023-07-31T02:45:06;15.60;85.40
13992;DHT22;7070;53.586;9.692;2023-07-31T02:47:33;15.60;86.10
13992;DHT22;7070;53.586;9.692;2023-07-31T02:50:01;15.70;85.50
13992;DHT22;7070;53.586;9.692;2023-07-31T02:52:28;15.70;85.50
13992;DHT22;7070;53.586;9.692;2023-07-31T02:54:55;15.70;85.50
13992;DHT22;7070;53.586;9.692;2023-07-31T02:57:22;15.70;85.50
13992;DHT22;7070;53.586;9.692;2023-07-31T02:59:49;15.70;85.50
13992;DHT22;7070;53.586;9.692;2023-07-31T03:02:16;15.80;86.40
13992;DHT22;7070;53.586;9.692;2023-07-31T03:04:42;15.80;85.70
13992;DHT22;7070;53.586;9.692;2023-07-31T03:07:11;15.80;85.70
13992;DHT22;7070;53.586;9.692;2023-07-31T03:09:37;15.80;85.70
13992;DHT22;7070;53.586;9.692;2023-07-31T03:12:05;15.80;85.70
13992;DHT22;7070;53.586;9.692;2023-07-31T03:14:32;15.80;85.80
13992;DHT22;7070;53.586;9.692;2023-07-31T03:16:59;15.90;85.80
13992;DHT22;7070;53.586;9.692;2023-07-31T03:19:26;15.90;85.90
13992;DHT22;7070;53.586;9.692;2023-07-31T03:21:53;15.80;85.80
13992;DHT22;7070;53.586;9.692;2023-07-31T03:24:21;15.90;85.90
13992;DHT22;7070;53.586;9.692;2023-07-31T03:26:48;15.90;85.90
13992;DHT22;7070;53.586;9.692;2023-07-31T03:29:15;15.90;85.90
13992;DHT22;7070;53.586;9.692;2023-07-31T03:31:41;16.00;86.00
13992;DHT22;7070;53.586;9.692;2023-07-31T03:34:08;16.00;86.10
13992;DHT22;7070;53.586;9.692;2023-07-31T03:36:35;16.10;86.20
13992;DHT22;7070;53.586;9.692;2023-07-31T03:39:02;16.10;86.30
13992;DHT22;7070;53.586;9.692;2023-07-31T03:41:30;16.10;86.30
13992;DHT22;7070;53.586;9.692;2023-07-31T03:43:57;16.10;86.20
13992;DHT22;7070;53.586;9.692;2023-07-31T03:46:24;16.20;86.40
13992;DHT22;7070;53.586;9.692;2023-07-31T03:48:51;16.30;86.50
13992;DHT22;7070;53.586;9.692;2023-07-31T03:51:18;16.30;86.50
13992;DHT22;7070;53.586;9.692;2023-07-31T03:53:45;16.40;86.60
13992;DHT22;7070;53.586;9.692;2023-07-31T03:56:12;16.40;86.60
13992;DHT22;7070;53.586;9.692;2023-07-31T03:58:42;16.40;86.50
13992;DHT22;7070;53.586;9.692;2023-07-31T04:01:11;16.50;86.70
13992;DHT22;7070;53.586;9.692;2023-07-31T04:03:38;16.50;86.50
13992;DHT22;7070;53.586;9.692;2023-07-31T04:06:05;16.50;86.50
13992;DHT22;7070;53.586;9.692;2023-07-31T04:08:33;16.60;86.60
13992;DHT22;7070;53.586;9.692;2023-07-31T04:11:00;16.60;86.50
13992;DHT22;7070;53.586;9.692;2023-07-31T04:13:27;16.60;86.60
13992;DHT22;7070;53.586;9.692;2023-07-31T04:15:57;16.70;86.60
13992;DHT22;7070;53.586;9.692;2023-07-31T04:18:24;16.70;86.60
13992;DHT22;7070;53.586;9.692;2023-07-31T04:20:51;16.70;86.60
13992;DHT22;7070;53.586;9.692;2023-07-31T04:23:18;16.70;86.50
13992;DHT22;7070;53.586;9.692;2023-07-31T04:25:45;16.80;86.70
13992;DHT22;7070;53.586;9.692;2023-07-31T04:28:12;16.80;86.60
13992;DHT22;7070;53.586;9.692;2023-07-31T04:30:39;16.80;86.50
13992;DHT22;7070;53.586;9.692;2023-07-31T04:33:07;16.90;86.80
13992;DHT22;7070;53.586;9.692;2023-07-31T04:35:34;16.90;86.60
13992;DHT22;7070;53.586;9.692;2023-07-31T04:38:01;16.90;86.60
13992;DHT22;7070;53.586;9.692;2023-07-31T04:40:28;16.90;86.60
13992;DHT22;7070;53.586;9.692;2023-07-31T04:42:55;16.90;86.70
13992;DHT22;7070;53.586;9.692;2023-07-31T04:45:22;16.90;86.70
13992;DHT22;7070;53.586;9.692;2023-07-31T04:47:48;16.90;86.60
13992;DHT22;7070;53.586;9.692;2023-07-31T04:50:17;16.90;86.80
13992;DHT22;7070;53.586;9.692;2023-07-31T04:52:44;17.00;86.90
13992;DHT22;7070;53.586;9.692;2023-07-31T04:55:10;17.00;86.90
13992;DHT22;7070;53.586;9.692;2023-07-31T04:57:37;17.00;86.90
13992;DHT22;7070;53.586;9.692;2023-07-31T05:00:05;17.00;86.90
13992;DHT22;7070;53.586;9.692;2023-07-31T05:02:32;17.00;86.80
13992;DHT22;7070;53.586;9.692;2023-07-31T05:04:59;17.10;87.00
13992;DHT22;7070;53.586;9.692;2023-07-31T05:07:27;17.10;87.00
13992;DHT22;7070;53.586;9.692;2023-07-31T05:09:54;17.10;87.00
13992;DHT22;7070;53.586;9.692;2023-07-31T05:12:24;17.10;87.00
13992;DHT22;7070;53.586;9.692;2023-07-31T05:14:51;17.10;87.00
13992;DHT22;7070;53.586;9.692;2023-07-31T05:17:17;17.10;87.00
13992;DHT22;7070;53.586;9.692;2023-07-31T05:19:44;17.10;86.90
13992;DHT22;7070;53.586;9.692;2023-07-31T05:22:11;17.20;87.00
13992;DHT22;7070;53.586;9.692;2023-07-31T05:24:40;17.20;87.10
13992;DHT22;7070;53.586;9.692;2023-07-31T05:27:07;17.20;87.10
13992;DHT22;7070;53.586;9.692;2023-07-31T05:29:35;17.10;87.00
13992;DHT22;7070;53.586;9.692;2023-07-31T05:32:02;17.20;87.10
13992;DHT22;7070;53.586;9.692;2023-07-31T05:34:29;17.20;87.10
13992;DHT22;7070;53.586;9.692;2023-07-31T05:36:55;17.30;87.20
13992;DHT22;7070;53.586;9.692;2023-07-31T05:39:22;17.30;87.30
13992;DHT22;7070;53.586;9.692;2023-07-31T05:41:51;17.30;87.40
13992;DHT22;7070;53.586;9.692;2023-07-31T05:44:17;15.40;85.60
13992;DHT22;7070;53.586;9.692;2023-07-31T05:46:44;17.30;87.50
13992;DHT22;7070;53.586;9.692;2023-07-31T05:49:11;17.40;87.60
13992;DHT22;7070;53.586;9.692;2023-07-31T05:51:38;17.40;87.80
13992;DHT22;7070;53.586;9.692;2023-07-31T05:54:05;17.50;88.60
13992;DHT22;7070;53.586;9.692;2023-07-31T05:56:31;17.50;88.60
13992;DHT22;7070;53.586;9.692;2023-07-31T05:59:01;17.50;87.90
13992;DHT22;7070;53.586;9.692;2023-07-31T06:01:28;17.70;88.00
13992;DHT22;7070;53.586;9.692;2023-07-31T06:03:57;17.70;88.00
13992;DHT22;7070;53.586;9.692;2023-07-31T06:06:24;17.80;88.70
13992;DHT22;7070;53.586;9.692;2023-07-31T06:08:51;17.70;87.90
13992;DHT22;7070;53.586;9.692;2023-07-31T06:11:22;17.80;88.00
13992;DHT22;7070;53.586;9.692;2023-07-31T06:13:53;17.80;87.90
13992;DHT22;7070;53.586;9.692;2023-07-31T06:16:21;17.90;87.90
13992;DHT22;7070;53.586;9.692;2023-07-31T06:18:48;17.90;88.00
13992;DHT22;7070;53.586;9.692;2023-07-31T06:21:15;17.90;87.90
13992;DHT22;7070;53.586;9.692;2023-07-31T06:23:41;17.90;87.90
13992;DHT22;7070;53.586;9.692;2023-07-31T06:26:08;17.90;87.80
13992;DHT22;7070;53.586;9.692;2023-07-31T06:28:35;18.00;87.80
13992;DHT22;7070;53.586;9.692;2023-07-31T06:31:02;18.00;87.80
13992;DHT22;7070;53.586;9.692;2023-07-31T06:33:30;18.00;88.40
13992;DHT22;7070;53.586;9.692;2023-07-31T06:35:57;18.00;87.80
13992;DHT22;7070;53.586;9.692;2023-07-31T06:38:25;18.00;87.70
13992;DHT22;7070;53.586;9.692;2023-07-31T06:40:52;17.90;87.60
13992;DHT22;7070;53.586;9.692;2023-07-31T06:43:19;18.00;87.70
13992;DHT22;7070;53.586;9.692;2023-07-31T06:45:46;17.90;87.60
13992;DHT22;7070;53.586;9.692;2023-07-31T06:48:15;17.90;87.70
13992;DHT22;7070;53.586;9.692;2023-07-31T06:50:43;17.90;87.80
13992;DHT22;7070;53.586;9.692;2023-07-31T06:53:10;17.90;87.90
13992;DHT22;7070;53.586;9.692;2023-07-31T06:55:37;17.90;87.90
13992;DHT22;7070;53.586;9.692;2023-07-31T06:58:04;18.00;88.20
13992;DHT22;7070;53.586;9.692;2023-07-31T07:00:31;18.00;88.20
13992;DHT22;7070;53.586;9.692;2023-07-31T07:03:01;18.10;88.30
13992;DHT22;7070;53.586;9.692;2023-07-31T07:05:29;17.90;88.20
13992;DHT22;7070;53.586;9.692;2023-07-31T07:07:57;18.10;88.50
13992;DHT22;7070;53.586;9.692;2023-07-31T07:10:24;18.10;88.50
13992;DHT22;7070;53.586;9.692;2023-07-31T07:12:51;18.10;88.50
13992;DHT22;7070;53.586;9.692;2023-07-31T07:15:18;18.20;88.50
13992;DHT22;7070;53.586;9.692;2023-07-31T07:17:45;18.30;88.60
13992;DHT22;7070;53.586;9.692;2023-07-31T07:20:12;18.30;88.60
13992;DHT22;7070;53.586;9.692;2023-07-31T07:22:39;18.30;88.70
13992;DHT22;7070;53.586;9.692;2023-07-31T07:25:09;18.40;89.00
13992;DHT22;7070;53.586;9.692;2023-07-31T07:27:36;18.50;89.00
13992;DHT22;7070;53.586;9.692;2023-07-31T07:30:04;18.60;89.20
13992;DHT22;7070;53.586;9.692;2023-07-31T07:32:31;18.60;89.20
13992;DHT22;7070;53.586;9.692;2023-07-31T07:34:58;18.70;89.30
13992;DHT22;7070;53.586;9.692;2023-07-31T07:37:25;18.80;89.50
13992;DHT22;7070;53.586;9.692;2023-07-31T07:39:52;18.80;89.30
13992;DHT22;7070;53.586;9.692;2023-07-31T07:42:20;18.90;89.40
13992;DHT22;7070;53.586;9.692;2023-07-31T07:44:47;18.90;89.60
13992;DHT22;7070;53.586;9.692;2023-07-31T07:47:13;19.00;89.70
13992;DHT22;7070;53.586;9.692;2023-07-31T07:49:40;19.10;89.90
13992;DHT22;7070;53.586;9.692;2023-07-31T07:52:07;19.20;89.90
13992;DHT22;7070;53.586;9.692;2023-07-31T07:54:34;19.30;89.90
13992;DHT22;7070;53.586;9.692;2023-07-31T07:57:01;19.40;89.90
13992;DHT22;7070;53.586;9.692;2023-07-31T07:59:29;19.40;90.00
13992;DHT22;7070;53.586;9.692;2023-07-31T08:01:56;19.50;90.00
13992;DHT22;7070;53.586;9.692;2023-07-31T08:04:23;19.50;90.00
13992;DHT22;7070;53.586;9.692;2023-07-31T08:06:49;19.60;90.00
13992;DHT22;7070;53.586;9.692;2023-07-31T08:09:16;19.70;90.00
13992;DHT22;7070;53.586;9.692;2023-07-31T08:11:43;19.70;89.80
13992;DHT22;7070;53.586;9.692;2023-07-31T08:14:10;19.80;89.90
13992;DHT22;7070;53.586;9.692;2023-07-31T08:16:38;19.80;89.70
13992;DHT22;7070;53.586;9.692;2023-07-31T08:19:05;19.80;89.70
13992;DHT22;7070;53.586;9.692;2023-07-31T08:21:32;19.80;89.70
13992;DHT22;7070;53.586;9.692;2023-07-31T08:23:59;19.90;89.80
13992;DHT22;7070;53.586;9.692;2023-07-31T08:26:26;19.90;90.00
13992;DHT22;7070;53.586;9.692;2023-07-31T08:28:53;20.00;90.00
13992;DHT22;7070;53.586;9.692;2023-07-31T08:31:20;20.00;90.00
13992;DHT22;7070;53.586;9.692;2023-07-31T08:33:48;20.00;90.00
13992;DHT22;7070;53.586;9.692;2023-07-31T08:36:15;20.10;90.10
13992;DHT22;7070;53.586;9.692;2023-07-31T08:38:42;20.10;90.00
13992;DHT22;7070;53.586;9.692;2023-07-31T08:41:08;20.20;90.10
13992;DHT22;7070;53.586;9.692;2023-07-31T08:43:36;20.20;90.00
13992;DHT22;7070;53.586;9.692;2023-07-31T08:46:05;20.30;90.10
13992;DHT22;7070;53.586;9.692;2023-07-31T08:48:32;20.40;90.20
13992;DHT22;7070;53.586;9.692;2023-07-31T08:51:00;20.40;90.10
13992;DHT22;7070;53.586;9.692;2023-07-31T08:53:27;20.40;90.10
13992;DHT22;7070;53.586;9.692;2023-07-31T08:55:54;20.50;90.00
13992;DHT22;7070;53.586;9.692;2023-07-31T08:58:24;20.50;90.00
13992;DHT22;7070;53.586;9.692;2023-07-31T09:00:52;20.50;90.00
13992;DHT22;7070;53.586;9.692;2023-07-31T09:03:23;20.50;90.10
13992;DHT22;7070;53.586;9.692;2023-07-31T09:05:51;20.60;90.20
13992;DHT22;7070;53.586;9.692;2023-07-31T09:08:21;20.60;90.20
13992;DHT22;7070;53.586;9.692;2023-07-31T09:10:48;20.70;90.40
13992;DHT22;7070;53.586;9.692;2023-07-31T09:13:16;20.70;90.40
13992;DHT22;7070;53.586;9.692;2023-07-31T09:15:45;20.80;90.40
13992;DHT22;7070;53.586;9.692;2023-07-31T09:18:12;20.90;90.40
13992;DHT22;7070;53.586;9.692;2023-07-31T09:20:39;20.90;90.40
13992;DHT22;7070;53.586;9.692;2023-07-31T09:23:08;21.00;90.40
13992;DHT22;7070;53.586;9.692;2023-07-31T09:25:37;21.10;90.40
13992;DHT22;7070;53.586;9.692;2023-07-31T09:28:05;21.20;90.40
13992;DHT22;7070;53.586;9.692;2023-07-31T09:30:44;21.20;90.40
13992;DHT22;7070;53.586;9.692;2023-07-31T09:33:12;21.20;90.50
13992;DHT22;7070;53.586;9.692;2023-07-31T09:35:39;21.30;90.30
13992;DHT22;7070;53.586;9.692;2023-07-31T09:38:10;21.30;90.30
13992;DHT22;7070;53.586;9.692;2023-07-31T09:40:39;21.30;90.30
13992;DHT22;7070;53.586;9.692;2023-07-31T09:43:22;21.30;90.20
13992;DHT22;7070;53.586;9.692;2023-07-31T09:45:55;21.40;90.10
13992;DHT22;7070;53.586;9.692;2023-07-31T09:48:24;21.40;90.00
13992;DHT22;7070;53.586;9.692;2023-07-31T09:50:53;21.40;89.90
13992;DHT22;7070;53.586;9.692;2023-07-31T09:53:28;21.40;89.80
13992;DHT22;7070;53.586;9.692;2023-07-31T09:55:58;21.30;89.40
13992;DHT22;7070;53.586;9.692;2023-07-31T09:58:29;21.20;88.40
13992;DHT22;7070;53.586;9.692;2023-07-31T10:00:58;21.10;87.10
13992;DHT22;7070;53.586;9.692;2023-07-31T10:03:26;20.80;86.50
13992;DHT22;7070;53.586;9.692;2023-07-31T10:05:55;20.50;86.40
13992;DHT22;7070;53.586;9.692;2023-07-31T10:08:27;20.30;86.70
13992;DHT22;7070;53.586;9.692;2023-07-31T10:10:59;20.10;87.20
13992;DHT22;7070;53.586;9.692;2023-07-31T10:13:28;19.90;88.00
13992;DHT22;7070;53.586;9.692;2023-07-31T10:15:59;19.80;87.60
13992;DHT22;7070;53.586;9.692;2023-07-31T10:18:26;19.60;87.50
13992;DHT22;7070;53.586;9.692;2023-07-31T10:20:53;19.60;87.80
13992;DHT22;7070;53.586;9.692;2023-07-31T10:23:22;19.50;88.10
13992;DHT22;7070;53.586;9.692;2023-07-31T10:25:50;19.40;88.20
13992;DHT22;7070;53.586;9.692;2023-07-31T10:28:20;19.40;88.30
13992;DHT22;7070;53.586;9.692;2023-07-31T10:30:49;19.30;88.20
13992;DHT22;7070;53.586;9.692;2023-07-31T10:33:16;19.30;88.20
13992;DHT22;7070;53.586;9.692;2023-07-31T10:35:46;19.20;87.90
13992;DHT22;7070;53.586;9.692;2023-07-31T10:38:13;19.20;87.80
13992;DHT22;7070;53.586;9.692;2023-07-31T10:40:40;19.10;87.60
13992;DHT22;7070;53.586;9.692;2023-07-31T10:43:07;19.10;87.50
13992;DHT22;7070;53.586;9.692;2023-07-31T10:45:39;18.90;87.60
13992;DHT22;7070;53.586;9.692;2023-07-31T10:48:13;18.80;86.50
13992;DHT22;7070;53.586;9.692;2023-07-31T10:50:47;18.70;86.30
13992;DHT22;7070;53.586;9.692;2023-07-31T10:53:23;18.50;86.70
13992;DHT22;7070;53.586;9.692;2023-07-31T10:55:50;18.40;86.80
13992;DHT22;7070;53.586;9.692;2023-07-31T10:58:19;18.30;86.70
13992;DHT22;7070;53.586;9.692;2023-07-31T11:00:47;18.20;86.80
13992;DHT22;7070;53.586;9.692;2023-07-31T11:03:15;18.10;86.70
13992;DHT22;7070;53.586;9.692;2023-07-31T11:05:50;18.00;87.00
13992;DHT22;7070;53.586;9.692;2023-07-31T11:08:21;17.90;87.10
13992;DHT22;7070;53.586;9.692;2023-07-31T11:10:50;17.90;87.10
13992;DHT22;7070;53.586;9.692;2023-07-31T11:13:17;17.80;87.10
13992;DHT22;7070;53.586;9.692;2023-07-31T11:15:44;17.70;87.10
13992;DHT22;7070;53.586;9.692;2023-07-31T11:18:13;17.70;87.30
13992;DHT22;7070;53.586;9.692;2023-07-31T11:20:40;17.70;87.60
13992;DHT22;7070;53.586;9.692;2023-07-31T11:23:09;17.70;88.50
13992;DHT22;7070;53.586;9.692;2023-07-31T11:25:37;17.70;87.80
13992;DHT22;7070;53.586;9.692;2023-07-31T11:28:07;17.80;87.60
13992;DHT22;7070;53.586;9.692;2023-07-31T11:30:34;17.70;87.50
13992;DHT22;7070;53.586;9.692;2023-07-31T11:33:02;17.70;87.70
13992;DHT22;7070;53.586;9.692;2023-07-31T11:35:31;17.70;87.70
13992;DHT22;7070;53.586;9.692;2023-07-31T11:37:59;17.70;87.70
13992;DHT22;7070;53.586;9.692;2023-07-31T11:40:26;17.70;87.80
13992;DHT22;7070;53.586;9.692;2023-07-31T11:42:56;17.70;87.60
13992;DHT22;7070;53.586;9.692;2023-07-31T11:45:25;17.70;87.60
13992;DHT22;7070;53.586;9.692;2023-07-31T11:47:54;17.70;87.60
13992;DHT22;7070;53.586;9.692;2023-07-31T11:50:22;17.60;87.40
13992;DHT22;7070;53.586;9.692;2023-07-31T11:52:53;17.60;87.40
13992;DHT22;7070;53.586;9.692;2023-07-31T11:55:22;17.50;87.10
13992;DHT22;7070;53.586;9.692;2023-07-31T11:57:50;17.50;87.10
13992;DHT22;7070;53.586;9.692;2023-07-31T12:00:18;17.40;87.30
13992;DHT22;7070;53.586;9.692;2023-07-31T12:02:45;17.40;87.50
13992;DHT22;7070;53.586;9.692;2023-07-31T12:05:13;17.40;87.50
13992;DHT22;7070;53.586;9.692;2023-07-31T12:07:47;17.40;87.60
13992;DHT22;7070;53.586;9.692;2023-07-31T12:10:26;17.40;87.40
13992;DHT22;7070;53.586;9.692;2023-07-31T12:13:00;17.40;87.60
13992;DHT22;7070;53.586;9.692;2023-07-31T12:15:35;17.40;87.40
13992;DHT22;7070;53.586;9.692;2023-07-31T12:18:08;17.30;87.70
13992;DHT22;7070;53.586;9.692;2023-07-31T12:20:39;17.30;87.80
13992;DHT22;7070;53.586;9.692;2023-07-31T12:23:06;17.30;87.80
13992;DHT22;7070;53.586;9.692;2023-07-31T12:25:34;17.40;88.10
13992;DHT22;7070;53.586;9.692;2023-07-31T12:28:05;17.40;88.30
13992;DHT22;7070;53.586;9.692;2023-07-31T12:30:38;17.50;88.30
13992;DHT22;7070;53.586;9.692;2023-07-31T12:33:06;17.50;88.40
13992;DHT22;7070;53.586;9.692;2023-07-31T12:35:42;17.50;88.60
13992;DHT22;7070;53.586;9.692;2023-07-31T12:38:10;17.70;89.00
13992;DHT22;7070;53.586;9.692;2023-07-31T12:40:39;17.80;89.00
13992;DHT22;7070;53.586;9.692;2023-07-31T12:43:06;17.90;89.00
13992;DHT22;7070;53.586;9.692;2023-07-31T12:45:33;17.90;88.80
13992;DHT22;7070;53.586;9.692;2023-07-31T12:48:00;17.90;88.20
13992;DHT22;7070;53.586;9.692;2023-07-31T12:50:27;18.00;88.40
13992;DHT22;7070;53.586;9.692;2023-07-31T12:52:54;18.00;88.50
13992;DHT22;7070;53.586;9.692;2023-07-31T12:55:21;18.00;88.60
13992;DHT22;7070;53.586;9.692;2023-07-31T12:57:50;18.10;89.10
13992;DHT22;7070;53.586;9.692;2023-07-31T13:00:17;18.10;88.40
13992;DHT22;7070;53.586;9.692;2023-07-31T13:02:44;18.10;88.40
13992;DHT22;7070;53.586;9.692;2023-07-31T13:05:11;18.20;88.50
13992;DHT22;7070;53.586;9.692;2023-07-31T13:07:38;18.20;88.50
13992;DHT22;7070;53.586;9.692;2023-07-31T13:10:06;18.20;88.80
13992;DHT22;7070;53.586;9.692;2023-07-31T13:12:34;18.30;89.10
13992;DHT22;7070;53.586;9.692;2023-07-31T13:15:02;18.30;89.00
13992;DHT22;7070;53.586;9.692;2023-07-31T13:17:29;18.50;89.10
13992;DHT22;7070;53.586;9.692;2023-07-31T13:19:56;18.50;88.90
13992;DHT22;7070;53.586;9.692;2023-07-31T13:22:23;18.50;88.80
13992;DHT22;7070;53.586;9.692;2023-07-31T13:24:50;18.70;88.90
13992;DHT22;7070;53.586;9.692;2023-07-31T13:27:17;18.60;88.60
13992;DHT22;7070;53.586;9.692;2023-07-31T13:29:46;18.60;88.60
13992;DHT22;7070;53.586;9.692;2023-07-31T13:32:15;18.60;88.60
13992;DHT22;7070;53.586;9.692;2023-07-31T13:34:42;18.60;88.70
13992;DHT22;7070;53.586;9.692;2023-07-31T13:37:09;18.70;88.80
13992;DHT22;7070;53.586;9.692;2023-07-31T13:39:36;18.70;88.60
13992;DHT22;7070;53.586;9.692;2023-07-31T13:42:04;18.70;88.40
13992;DHT22;7070;53.586;9.692;2023-07-31T13:44:32;18.70;88.00
13992;DHT22;7070;53.586;9.692;2023-07-31T13:46:59;18.70;88.00
13992;DHT22;7070;53.586;9.692;2023-07-31T13:49:27;18.60;88.20
13992;DHT22;7070;53.586;9.692;2023-07-31T13:51:54;18.60;88.40
13992;DHT22;7070;53.586;9.692;2023-07-31T13:54:22;18.60;88.70
13992;DHT22;7070;53.586;9.692;2023-07-31T13:56:49;18.60;88.90
13992;DHT22;7070;53.586;9.692;2023-07-31T13:59:16;18.70;89.10
13992;DHT22;7070;53.586;9.692;2023-07-31T14:01:44;18.80;89.00
13992;DHT22;7070;53.586;9.692;2023-07-31T14:04:11;18.80;88.90
13992;DHT22;7070;53.586;9.692;2023-07-31T14:06:39;18.90;89.00
13992;DHT22;7070;53.586;9.692;2023-07-31T14:09:06;18.90;88.90
13992;DHT22;7070;53.586;9.692;2023-07-31T14:11:33;18.90;88.90
13992;DHT22;7070;53.586;9.692;2023-07-31T14:14:00;18.90;88.70
13992;DHT22;7070;53.586;9.692;2023-07-31T14:16:27;18.90;89.20
13992;DHT22;7070;53.586;9.692;2023-07-31T14:18:54;19.00;89.70
13992;DHT22;7070;53.586;9.692;2023-07-31T14:21:21;18.90;90.00
13992;DHT22;7070;53.586;9.692;2023-07-31T14:23:49;18.90;90.10
13992;DHT22;7070;53.586;9.692;2023-07-31T14:26:16;18.80;90.30
13992;DHT22;7070;53.586;9.692;2023-07-31T14:28:43;18.80;90.40
13992;DHT22;7070;53.586;9.692;2023-07-31T14:31:12;18.80;90.60
13992;DHT22;7070;53.586;9.692;2023-07-31T14:33:39;18.90;90.80
13992;DHT22;7070;53.586;9.692;2023-07-31T14:36:06;18.90;90.90
13992;DHT22;7070;53.586;9.692;2023-07-31T14:38:33;19.00;91.00
13992;DHT22;7070;53.586;9.692;2023-07-31T14:41:03;19.10;91.10
13992;DHT22;7070;53.586;9.692;2023-07-31T14:43:32;19.10;91.20
13992;DHT22;7070;53.586;9.692;2023-07-31T14:45:59;19.10;91.30
13992;DHT22;7070;53.586;9.692;2023-07-31T14:48:28;19.20;91.30
13992;DHT22;7070;53.586;9.692;2023-07-31T14:50:55;19.20;91.30
13992;DHT22;7070;53.586;9.692;2023-07-31T14:53:22;19.30;91.30
13992;DHT22;7070;53.586;9.692;2023-07-31T14:55:49;19.30;91.30
13992;DHT22;7070;53.586;9.692;2023-07-31T14:58:17;19.30;91.30
13992;DHT22;7070;53.586;9.692;2023-07-31T15:00:45;19.40;91.40
13992;DHT22;7070;53.586;9.692;2023-07-31T15:03:14;19.40;91.40
13992;DHT22;7070;53.586;9.692;2023-07-31T15:05:41;19.50;91.50
13992;DHT22;7070;53.586;9.692;2023-07-31T15:08:08;19.40;91.50
13992;DHT22;7070;53.586;9.692;2023-07-31T15:10:38;19.50;91.50
13992;DHT22;7070;53.586;9.692;2023-07-31T15:13:05;19.50;91.50
13992;DHT22;7070;53.586;9.692;2023-07-31T15:15:33;19.60;91.60
13992;DHT22;7070;53.586;9.692;2023-07-31T15:18:00;19.60;91.50
13992;DHT22;7070;53.586;9.692;2023-07-31T15:20:27;19.50;91.90
13992;DHT22;7070;53.586;9.692;2023-07-31T15:22:57;19.60;91.60
13992;DHT22;7070;53.586;9.692;2023-07-31T15:25:23;19.60;91.60
13992;DHT22;7070;53.586;9.692;2023-07-31T15:27:50;19.60;91.60
13992;DHT22;7070;53.586;9.692;2023-07-31T15:30:17;19.70;91.60
13992;DHT22;7070;53.586;9.692;2023-07-31T15:32:47;19.70;91.60
13992;DHT22;7070;53.586;9.692;2023-07-31T15:35:26;19.70;91.90
13992;DHT22;7070;53.586;9.692;2023-07-31T15:37:55;19.60;91.40
13992;DHT22;7070;53.586;9.692;2023-07-31T15:40:35;19.60;91.40
13992;DHT22;7070;53.586;9.692;2023-07-31T15:43:04;19.60;91.80
13992;DHT22;7070;53.586;9.692;2023-07-31T15:45:31;19.60;91.50
13992;DHT22;7070;53.586;9.692;2023-07-31T15:48:00;19.60;91.50
13992;DHT22;7070;53.586;9.692;2023-07-31T15:50:29;19.60;91.50